Time;durP1;ratioP1;P1;durP2;ratioP2;P2;SDS_P1;SDS_P2;PMS_P1;PMS_P2;Temp;Humidity;BMP_temperature;BMP_pressure;BME280_temperature;BME280_humidity;BME280_pressure;Samples;Min_cycle;Max_cycle;Signal;HPM_P1;HPM_P2
2021/09/10 00:00:01;;;;;;;25.88;5.82;;;;;;;;;;5093968;28;20039;-45
2021/09/10 00:02:28;;;;;;;19.38;5.40;;;;;;;;;;5086896;28;20031;-48
2021/09/10 00:04:55;;;;;;;29.67;6.45;;;;;;;;;;5089213;28;20020;-47
2021/09/10 00:07:22;;;;;;;22.13;6.60;;;;;;;;;;5095674;28;20418;-50
2021/09/10 00:09:49;;;;;;;23.23;6.72;;;;;;;;;;5098097;28;20373;-47
2021/09/10 00:12:17;;;;;;;23.75;6.78;;;;;;;;;;5089481;28;20352;-49
2021/09/10 00:14:44;;;;;;;26.05;6.90;;;;;;;;;;5097129;28;20467;-49
2021/09/10 00:17:11;;;;;;;29.63;7.05;;;;;;;;;;5099879;28;20043;-48
2021/09/10 00:19:38;;;;;;;31.48;7.57;;;;;;;;;;5088529;28;20436;-51
2021/09/10 00:22:05;;;;;;;25.63;8.70;;;;;;;;;;5093374;28;20015;-49
2021/09/10 00:24:32;;;;;;;38.60;13.07;;;;;;;;;;5099191;28;20170;-48
2021/09/10 00:26:59;;;;;;;41.60;14.40;;;;;;;;;;5103243;28;20020;-51
2021/09/10 00:29:26;;;;;;;38.90;15.52;;;;;;;;;;5093678;28;20076;-49
2021/09/10 00:31:53;;;;;;;38.60;12.13;;;;;;;;;;5098895;28;20054;-46
2021/09/10 00:34:20;;;;;;;31.17;9.07;;;;;;;;;;5099899;28;20750;-42
2021/09/10 00:36:47;;;;;;;35.78;10.00;;;;;;;;;;5096387;28;20030;-50
2021/09/10 00:39:15;;;;;;;29.55;12.95;;;;;;;;;;5094914;28;20098;-52
2021/09/10 00:41:42;;;;;;;27.05;10.88;;;;;;;;;;5098179;28;20032;-47
2021/09/10 00:44:09;;;;;;;31.85;13.13;;;;;;;;;;5099546;28;20094;-46
2021/09/10 00:46:37;;;;;;;28.38;14.27;;;;;;;;;;5094819;28;20051;-51
2021/09/10 00:49:05;;;;;;;37.90;18.63;;;;;;;;;;5099451;28;20047;-47
2021/09/10 00:51:34;;;;;;;33.25;15.73;;;;;;;;;;5100251;28;20089;-46
2021/09/10 00:54:01;;;;;;;28.58;14.07;;;;;;;;;;5095664;28;20039;-43
2021/09/10 00:56:30;;;;;;;36.75;13.25;;;;;;;;;;5097585;28;20031;-44
2021/09/10 00:59:00;;;;;;;32.83;11.85;;;;;;;;;;5102321;28;20028;-44
2021/09/10 01:01:27;;;;;;;25.33;7.32;;;;;;;;;;5096449;28;20028;-50
2021/09/10 01:03:54;;;;;;;22.45;7.38;;;;;;;;;;5080662;28;20031;-50
2021/09/10 01:06:22;;;;;;;22.65;9.07;;;;;;;;;;5084600;28;20115;-50
2021/09/10 01:08:50;;;;;;;22.77;9.68;;;;;;;;;;5088710;28;20353;-48
2021/09/10 01:11:18;;;;;;;19.38;9.05;;;;;;;;;;5085144;28;20043;-49
2021/09/10 01:13:45;;;;;;;23.40;9.82;;;;;;;;;;5067852;28;20060;-49
2021/09/10 01:16:14;;;;;;;24.85;8.55;;;;;;;;;;5080790;28;20487;-46
2021/09/10 01:18:41;;;;;;;23.00;8.93;;;;;;;;;;5095129;28;20028;-48
2021/09/10 01:21:08;;;;;;;25.48;9.45;;;;;;;;;;5087008;28;20519;-49
2021/09/10 01:23:35;;;;;;;26.50;8.48;;;;;;;;;;5095490;28;20016;-50
2021/09/10 01:26:02;;;;;;;25.92;8.45;;;;;;;;;;5095464;28;20031;-43
2021/09/10 01:28:29;;;;;;;25.27;9.25;;;;;;;;;;5102605;28;20024;-46
2021/09/10 01:30:56;;;;;;;19.30;8.95;;;;;;;;;;5092740;28;20024;-43
2021/09/10 01:33:24;;;;;;;20.85;9.07;;;;;;;;;;5103069;28;20024;-44
2021/09/10 01:35:51;;;;;;;16.80;7.07;;;;;;;;;;5087571;28;20039;-44
2021/09/10 01:38:18;;;;;;;19.90;7.22;;;;;;;;;;5085648;28;20525;-41
2021/09/10 01:40:45;;;;;;;20.55;8.27;;;;;;;;;;5075130;28;20044;-43
2021/09/10 01:43:14;;;;;;;16.27;7.40;;;;;;;;;;5100797;28;20020;-44
2021/09/10 01:45:41;;;;;;;15.57;7.43;;;;;;;;;;5103223;28;20031;-42
2021/09/10 01:48:08;;;;;;;19.10;6.78;;;;;;;;;;5096524;28;20020;-41
2021/09/10 01:50:35;;;;;;;22.02;7.35;;;;;;;;;;5093752;28;20036;-42
2021/09/10 01:53:02;;;;;;;18.75;7.25;;;;;;;;;;5086040;28;20112;-41
2021/09/10 01:55:32;;;;;;;23.08;7.20;;;;;;;;;;5082070;28;20103;-41
2021/09/10 01:58:00;;;;;;;16.10;7.10;;;;;;;;;;5084408;28;20414;-39
2021/09/10 02:00:27;;;;;;;13.00;6.53;;;;;;;;;;5099783;28;20036;-40
2021/09/10 02:02:54;;;;;;;22.88;6.72;;;;;;;;;;5098357;28;20022;-39
2021/09/10 02:05:21;;;;;;;18.17;7.43;;;;;;;;;;5095403;28;20077;-40
2021/09/10 02:07:48;;;;;;;17.83;6.97;;;;;;;;;;5098810;28;20027;-41
2021/09/10 02:10:16;;;;;;;14.48;6.60;;;;;;;;;;5103765;28;20031;-40
2021/09/10 02:12:43;;;;;;;16.50;6.47;;;;;;;;;;5101717;28;20020;-40
2021/09/10 02:15:11;;;;;;;17.40;6.95;;;;;;;;;;5100168;28;20102;-42
2021/09/10 02:17:38;;;;;;;19.85;6.53;;;;;;;;;;5105072;28;20018;-41
2021/09/10 02:20:06;;;;;;;13.88;5.95;;;;;;;;;;5101810;28;20357;-40
2021/09/10 02:22:33;;;;;;;13.80;5.82;;;;;;;;;;5100787;28;20035;-40
2021/09/10 02:25:00;;;;;;;17.73;6.32;;;;;;;;;;5106410;28;20088;-41
2021/09/10 02:27:27;;;;;;;12.52;5.43;;;;;;;;;;5103738;28;20460;-41
2021/09/10 02:29:54;;;;;;;15.85;6.57;;;;;;;;;;5107089;28;20020;-41
2021/09/10 02:32:21;;;;;;;17.42;6.03;;;;;;;;;;5103363;28;20027;-40
2021/09/10 02:34:48;;;;;;;15.07;6.75;;;;;;;;;;5104876;28;20394;-40
2021/09/10 02:37:15;;;;;;;14.60;6.28;;;;;;;;;;5104390;28;20012;-41
2021/09/10 02:39:42;;;;;;;17.88;6.70;;;;;;;;;;5103927;28;20036;-40
2021/09/10 02:42:09;;;;;;;12.85;5.93;;;;;;;;;;5101864;28;20023;-42
2021/09/10 02:44:36;;;;;;;12.40;6.38;;;;;;;;;;5095967;28;20016;-39
2021/09/10 02:47:04;;;;;;;24.15;6.57;;;;;;;;;;5099093;28;20027;-40
2021/09/10 02:49:31;;;;;;;18.42;6.22;;;;;;;;;;5100382;28;20019;-40
2021/09/10 02:51:58;;;;;;;11.13;5.93;;;;;;;;;;5102445;28;20073;-39
2021/09/10 02:54:25;;;;;;;16.33;5.88;;;;;;;;;;5101047;28;20020;-39
2021/09/10 02:56:52;;;;;;;14.25;5.93;;;;;;;;;;5099237;28;20073;-41
2021/09/10 02:59:19;;;;;;;15.10;6.35;;;;;;;;;;5076040;28;20400;-42
2021/09/10 03:01:47;;;;;;;14.75;5.82;;;;;;;;;;5084476;28;20035;-40
2021/09/10 03:04:14;;;;;;;12.10;5.75;;;;;;;;;;5088176;28;20020;-43
2021/09/10 03:06:41;;;;;;;18.85;6.57;;;;;;;;;;5086611;28;20491;-42
2021/09/10 03:09:08;;;;;;;14.45;6.10;;;;;;;;;;5086831;28;20020;-43
2021/09/10 03:11:35;;;;;;;10.95;5.63;;;;;;;;;;5088330;28;20020;-41
2021/09/10 03:14:03;;;;;;;11.50;6.28;;;;;;;;;;5084932;28;20020;-42
2021/09/10 03:16:31;;;;;;;12.07;5.45;;;;;;;;;;5088690;28;20016;-42
2021/09/10 03:18:59;;;;;;;12.15;5.32;;;;;;;;;;5083942;28;20025;-41
2021/09/10 03:21:26;;;;;;;13.02;6.15;;;;;;;;;;5088733;28;20083;-44
2021/09/10 03:23:53;;;;;;;13.70;5.72;;;;;;;;;;5084993;28;20021;-40
2021/09/10 03:26:20;;;;;;;16.55;5.97;;;;;;;;;;5087965;28;20024;-43
2021/09/10 03:28:47;;;;;;;9.55;5.63;;;;;;;;;;5086380;28;20077;-41
2021/09/10 03:31:14;;;;;;;12.05;5.35;;;;;;;;;;5088131;28;20426;-43
2021/09/10 03:33:41;;;;;;;15.55;5.70;;;;;;;;;;5092743;28;20027;-42
2021/09/10 03:36:08;;;;;;;9.85;5.07;;;;;;;;;;5093072;28;20022;-43
2021/09/10 03:38:35;;;;;;;10.95;5.15;;;;;;;;;;5093293;28;20066;-41
2021/09/10 03:41:02;;;;;;;11.52;5.20;;;;;;;;;;5092857;28;20036;-40
2021/09/10 03:43:29;;;;;;;11.13;5.82;;;;;;;;;;5093313;28;20020;-41
2021/09/10 03:45:56;;;;;;;12.90;5.07;;;;;;;;;;5093072;28;20024;-41
2021/09/10 03:48:23;;;;;;;11.85;5.07;;;;;;;;;;5093085;28;20017;-41
2021/09/10 03:50:50;;;;;;;9.70;4.65;;;;;;;;;;5093020;28;20054;-41
2021/09/10 03:53:17;;;;;;;9.30;4.90;;;;;;;;;;5093058;28;20016;-42
2021/09/10 03:55:44;;;;;;;8.95;5.05;;;;;;;;;;5092870;28;20036;-40
2021/09/10 03:58:12;;;;;;;8.70;4.90;;;;;;;;;;5092670;28;20020;-43
2021/09/10 04:00:39;;;;;;;9.10;4.38;;;;;;;;;;5092801;28;20064;-42
2021/09/10 04:03:06;;;;;;;10.05;4.63;;;;;;;;;;5092641;28;20074;-42
2021/09/10 04:05:33;;;;;;;13.35;5.65;;;;;;;;;;5092811;28;20067;-43
2021/09/10 04:08:00;;;;;;;10.13;4.53;;;;;;;;;;5092791;28;20020;-42
2021/09/10 04:10:27;;;;;;;9.18;4.57;;;;;;;;;;5092630;28;20025;-43
2021/09/10 04:12:54;;;;;;;9.70;4.32;;;;;;;;;;5092575;28;20020;-41
2021/09/10 04:15:21;;;;;;;8.70;4.80;;;;;;;;;;5092436;28;20502;-43
2021/09/10 04:17:48;;;;;;;7.90;4.40;;;;;;;;;;5092600;28;20479;-41
2021/09/10 04:20:15;;;;;;;10.05;4.80;;;;;;;;;;5092211;28;20028;-42
2021/09/10 04:22:43;;;;;;;7.90;4.45;;;;;;;;;;5092616;28;20024;-42
2021/09/10 04:25:10;;;;;;;12.75;4.57;;;;;;;;;;5092153;28;20387;-42
2021/09/10 04:27:37;;;;;;;11.23;4.57;;;;;;;;;;5092150;28;20349;-41
2021/09/10 04:30:06;;;;;;;8.20;4.25;;;;;;;;;;5091745;28;20444;-41
2021/09/10 04:32:33;;;;;;;7.43;4.03;;;;;;;;;;5092195;28;20019;-41
2021/09/10 04:35:00;;;;;;;10.13;4.53;;;;;;;;;;5092256;28;20019;-41
2021/09/10 04:37:27;;;;;;;7.72;4.18;;;;;;;;;;5091782;28;20024;-42
2021/09/10 04:39:55;;;;;;;6.32;4.15;;;;;;;;;;5091999;28;20082;-41
2021/09/10 04:42:22;;;;;;;8.98;4.75;;;;;;;;;;5092032;28;20047;-42
2021/09/10 04:44:49;;;;;;;8.13;4.40;;;;;;;;;;5090856;28;20076;-41
2021/09/10 04:47:16;;;;;;;8.60;3.75;;;;;;;;;;5092195;28;20077;-43
2021/09/10 04:49:43;;;;;;;7.45;4.00;;;;;;;;;;5091720;28;20356;-45
2021/09/10 04:52:10;;;;;;;8.52;4.25;;;;;;;;;;5091877;28;20035;-43
2021/09/10 04:54:38;;;;;;;11.45;4.10;;;;;;;;;;5091877;28;20107;-41
2021/09/10 04:57:05;;;;;;;8.68;4.20;;;;;;;;;;5091840;28;20016;-40
2021/09/10 04:59:32;;;;;;;7.10;4.00;;;;;;;;;;5077270;28;20024;-42
2021/09/10 05:01:59;;;;;;;6.68;4.00;;;;;;;;;;5091859;28;20031;-41
2021/09/10 05:04:26;;;;;;;7.05;3.88;;;;;;;;;;5091776;28;20114;-43
2021/09/10 05:06:53;;;;;;;6.82;4.10;;;;;;;;;;5073761;28;20134;-40
2021/09/10 05:09:20;;;;;;;6.43;3.45;;;;;;;;;;5091827;28;20027;-42
2021/09/10 05:11:47;;;;;;;6.97;3.72;;;;;;;;;;5091627;28;20021;-42
2021/09/10 05:14:15;;;;;;;7.13;4.07;;;;;;;;;;5091587;28;20091;-43
2021/09/10 05:16:42;;;;;;;7.28;4.07;;;;;;;;;;5091531;28;20035;-42
2021/09/10 05:19:09;;;;;;;5.80;3.58;;;;;;;;;;5083290;28;20009;-43
2021/09/10 05:21:37;;;;;;;8.07;4.30;;;;;;;;;;5085999;28;20480;-41
2021/09/10 05:24:04;;;;;;;8.05;3.47;;;;;;;;;;5091591;28;20020;-40
2021/09/10 05:26:32;;;;;;;6.65;3.78;;;;;;;;;;5091529;28;20535;-41
2021/09/10 05:28:59;;;;;;;5.32;3.75;;;;;;;;;;5091195;28;20468;-41
2021/09/10 05:31:26;;;;;;;6.80;3.92;;;;;;;;;;5091503;28;20020;-42
2021/09/10 05:33:54;;;;;;;6.80;3.75;;;;;;;;;;5091490;28;20055;-41
2021/09/10 05:36:21;;;;;;;5.60;3.65;;;;;;;;;;5091532;28;20024;-42
2021/09/10 05:38:48;;;;;;;7.40;3.55;;;;;;;;;;5091557;28;20048;-40
2021/09/10 05:41:15;;;;;;;6.55;3.78;;;;;;;;;;5091226;28;20056;-41
2021/09/10 05:43:42;;;;;;;6.10;3.78;;;;;;;;;;5091389;28;20024;-41
2021/09/10 05:46:10;;;;;;;4.90;3.50;;;;;;;;;;5091289;28;20035;-41
2021/09/10 05:48:37;;;;;;;7.50;3.70;;;;;;;;;;5091463;28;20078;-43
2021/09/10 05:51:04;;;;;;;5.70;3.40;;;;;;;;;;5091146;28;20031;-41
2021/09/10 05:53:31;;;;;;;4.85;3.20;;;;;;;;;;5091347;28;20024;-42
2021/09/10 05:55:58;;;;;;;9.02;3.45;;;;;;;;;;5092856;28;20521;-44
2021/09/10 05:58:25;;;;;;;4.65;3.40;;;;;;;;;;5094830;28;20024;-42
2021/09/10 06:00:52;;;;;;;4.60;3.45;;;;;;;;;;5094786;28;20028;-41
2021/09/10 06:03:20;;;;;;;6.18;3.33;;;;;;;;;;5094960;28;20016;-41
2021/09/10 06:05:47;;;;;;;6.18;3.17;;;;;;;;;;5094954;28;20024;-42
2021/09/10 06:08:14;;;;;;;5.30;3.28;;;;;;;;;;5094705;28;20028;-43
2021/09/10 06:10:41;;;;;;;5.22;3.35;;;;;;;;;;5095022;28;20567;-41
2021/09/10 06:13:11;;;;;;;5.47;3.00;;;;;;;;;;5099810;28;20471;-40
2021/09/10 06:15:38;;;;;;;10.23;3.00;;;;;;;;;;5094295;28;20110;-40
2021/09/10 06:18:05;;;;;;;7.10;3.22;;;;;;;;;;5076433;28;20020;-41
2021/09/10 06:20:32;;;;;;;4.45;3.08;;;;;;;;;;5101773;28;20085;-42
2021/09/10 06:23:00;;;;;;;6.07;3.30;;;;;;;;;;5094642;28;20012;-42
2021/09/10 06:25:27;;;;;;;4.78;3.03;;;;;;;;;;5108551;28;20099;-41
2021/09/10 06:27:55;;;;;;;5.13;3.13;;;;;;;;;;5094552;28;20024;-41
2021/09/10 06:30:22;;;;;;;5.30;3.17;;;;;;;;;;5108493;28;20031;-41
2021/09/10 06:32:49;;;;;;;4.88;2.72;;;;;;;;;;5094689;28;20020;-42
2021/09/10 06:35:16;;;;;;;4.68;3.08;;;;;;;;;;5094543;28;20471;-41
2021/09/10 06:37:43;;;;;;;4.28;2.47;;;;;;;;;;5108719;28;20032;-41
2021/09/10 06:40:11;;;;;;;4.50;2.80;;;;;;;;;;5094054;28;20377;-40
2021/09/10 06:42:39;;;;;;;4.93;3.13;;;;;;;;;;5094257;28;20017;-41
2021/09/10 06:45:07;;;;;;;4.40;2.88;;;;;;;;;;5094300;28;20031;-44
2021/09/10 06:47:34;;;;;;;6.32;3.20;;;;;;;;;;5108588;28;20099;-40
2021/09/10 06:50:02;;;;;;;4.57;2.80;;;;;;;;;;5094299;28;20461;-42
2021/09/10 06:52:29;;;;;;;4.07;2.53;;;;;;;;;;5093925;28;20152;-41
2021/09/10 06:54:56;;;;;;;4.78;3.05;;;;;;;;;;5093878;28;20024;-41
2021/09/10 06:57:27;;;;;;;4.28;2.80;;;;;;;;;;5094194;28;20106;-45
2021/09/10 06:59:54;;;;;;;4.43;3.00;;;;;;;;;;5093898;28;20013;-43
2021/09/10 07:02:22;;;;;;;11.68;2.90;;;;;;;;;;5093914;28;20063;-45
2021/09/10 07:04:49;;;;;;;5.03;2.67;;;;;;;;;;5093699;28;20016;-43
2021/09/10 07:07:16;;;;;;;4.20;2.72;;;;;;;;;;5092943;28;20066;-42
2021/09/10 07:09:43;;;;;;;4.82;2.60;;;;;;;;;;5093307;28;20080;-42
2021/09/10 07:12:10;;;;;;;4.85;2.25;;;;;;;;;;5093794;28;20078;-43
2021/09/10 07:14:37;;;;;;;6.45;2.53;;;;;;;;;;5093600;28;20016;-40
2021/09/10 07:17:04;;;;;;;3.85;2.58;;;;;;;;;;5093661;28;20020;-45
2021/09/10 07:19:31;;;;;;;3.63;2.50;;;;;;;;;;5093654;28;20028;-42
2021/09/10 07:21:58;;;;;;;3.47;2.47;;;;;;;;;;5107458;28;20032;-43
2021/09/10 07:24:26;;;;;;;3.85;2.28;;;;;;;;;;5093026;28;20020;-43
2021/09/10 07:26:53;;;;;;;3.78;2.20;;;;;;;;;;5093397;28;20021;-42
2021/09/10 07:29:22;;;;;;;4.30;2.58;;;;;;;;;;5093371;28;20012;-43
2021/09/10 07:31:50;;;;;;;3.05;2.47;;;;;;;;;;5095151;28;20031;-43
2021/09/10 07:34:17;;;;;;;4.47;2.65;;;;;;;;;;5105585;28;20091;-41
2021/09/10 07:36:51;;;;;;;3.63;2.38;;;;;;;;;;5093005;28;20839;-41
2021/09/10 07:39:20;;;;;;;3.47;2.33;;;;;;;;;;5093064;28;20043;-43
2021/09/10 07:41:47;;;;;;;3.80;2.53;;;;;;;;;;5093012;28;20444;-42
2021/09/10 07:44:16;;;;;;;4.93;2.70;;;;;;;;;;5079207;28;20414;-42
2021/09/10 07:46:44;;;;;;;4.65;2.50;;;;;;;;;;5093104;28;20103;-42
2021/09/10 07:49:11;;;;;;;3.10;1.98;;;;;;;;;;5092759;28;20024;-41
2021/09/10 07:51:38;;;;;;;3.72;2.50;;;;;;;;;;5092921;28;20024;-42
2021/09/10 07:54:06;;;;;;;4.00;2.20;;;;;;;;;;5092790;28;20031;-42
2021/09/10 07:56:33;;;;;;;4.00;2.45;;;;;;;;;;5092807;28;20030;-41
2021/09/10 07:59:01;;;;;;;3.75;2.42;;;;;;;;;;5092724;28;20034;-43
2021/09/10 08:01:28;;;;;;;4.72;2.45;;;;;;;;;;5092742;28;20043;-40
2021/09/10 08:03:55;;;;;;;3.25;2.38;;;;;;;;;;5092834;28;20016;-41
2021/09/10 08:06:22;;;;;;;3.20;2.20;;;;;;;;;;5078658;28;20030;-41
2021/09/10 08:08:49;;;;;;;3.00;2.10;;;;;;;;;;5092585;28;20020;-40
2021/09/10 08:11:16;;;;;;;3.85;2.45;;;;;;;;;;5092462;28;20028;-41
2021/09/10 08:13:43;;;;;;;3.00;2.08;;;;;;;;;;5092480;28;20067;-41
2021/09/10 08:16:10;;;;;;;3.80;2.25;;;;;;;;;;5092318;28;20023;-39
2021/09/10 08:18:37;;;;;;;4.85;2.20;;;;;;;;;;5074120;28;20027;-42
2021/09/10 08:21:04;;;;;;;3.38;2.10;;;;;;;;;;5103753;28;20042;-42
2021/09/10 08:23:31;;;;;;;5.82;2.33;;;;;;;;;;5094542;28;20028;-42
2021/09/10 08:25:58;;;;;;;2.58;1.80;;;;;;;;;;5092279;28;20165;-42
2021/09/10 08:28:25;;;;;;;2.75;1.92;;;;;;;;;;5092219;28;20471;-43
2021/09/10 08:30:52;;;;;;;3.75;2.05;;;;;;;;;;5092389;28;20042;-42
2021/09/10 08:33:20;;;;;;;3.92;2.20;;;;;;;;;;5092047;28;20020;-44
2021/09/10 08:35:48;;;;;;;6.40;2.20;;;;;;;;;;5091894;28;20025;-41
2021/09/10 08:38:15;;;;;;;3.40;2.10;;;;;;;;;;5092090;28;20047;-41
2021/09/10 08:40:45;;;;;;;2.97;2.03;;;;;;;;;;5091880;28;20040;-41
2021/09/10 08:43:13;;;;;;;3.55;2.20;;;;;;;;;;5092139;28;20017;-42
2021/09/10 08:45:41;;;;;;;4.95;2.13;;;;;;;;;;5091920;28;20028;-40
2021/09/10 08:48:08;;;;;;;4.50;2.20;;;;;;;;;;5092016;28;20027;-42
2021/09/10 08:50:35;;;;;;;3.20;2.08;;;;;;;;;;5091496;28;20040;-42
2021/09/10 08:53:02;;;;;;;2.72;1.60;;;;;;;;;;5092108;28;20050;-41
2021/09/10 08:55:29;;;;;;;3.92;2.10;;;;;;;;;;5091797;28;20483;-43
2021/09/10 08:57:56;;;;;;;3.03;1.80;;;;;;;;;;5091910;28;20048;-41
2021/09/10 09:00:41;;;;;;;3.22;2.38;;;;;;;;;;5091980;28;20379;-43
2021/09/10 09:03:10;;;;;;;2.95;1.75;;;;;;;;;;5091828;28;20108;-43
2021/09/10 09:05:37;;;;;;;2.75;1.90;;;;;;;;;;5091911;28;20038;-41
2021/09/10 09:08:09;;;;;;;2.38;1.70;;;;;;;;;;5091779;28;20046;-44
2021/09/10 09:10:52;;;;;;;2.97;1.98;;;;;;;;;;5091912;28;20027;-41
2021/09/10 09:13:19;;;;;;;2.88;1.65;;;;;;;;;;5079128;28;20024;-42
2021/09/10 09:15:46;;;;;;;3.28;1.88;;;;;;;;;;5091619;28;20515;-40
2021/09/10 09:18:13;;;;;;;2.65;1.55;;;;;;;;;;5091511;28;20020;-42
2021/09/10 09:20:46;;;;;;;2.42;1.70;;;;;;;;;;5099800;28;20157;-41
2021/09/10 09:23:14;;;;;;;2.95;1.70;;;;;;;;;;5096457;28;20024;-42
2021/09/10 09:25:41;;;;;;;2.78;1.90;;;;;;;;;;5073481;28;20051;-42
2021/09/10 09:28:20;;;;;;;2.70;1.60;;;;;;;;;;5091408;28;20023;-44
2021/09/10 09:30:48;;;;;;;2.53;1.55;;;;;;;;;;5079958;28;20052;-41
2021/09/10 09:33:17;;;;;;;2.58;1.70;;;;;;;;;;5095761;28;20020;-41
2021/09/10 09:35:45;;;;;;;8.65;1.63;;;;;;;;;;5095411;28;20028;-43
2021/09/10 09:38:13;;;;;;;4.82;1.65;;;;;;;;;;5095406;28;20514;-40
2021/09/10 09:40:41;;;;;;;3.88;1.55;;;;;;;;;;5095298;28;20039;-40
2021/09/10 09:43:17;;;;;;;2.20;1.55;;;;;;;;;;5089616;28;20017;-41
2021/09/10 09:45:53;;;;;;;3.25;1.60;;;;;;;;;;5074798;28;20388;-41
2021/09/10 09:48:22;;;;;;;2.95;1.58;;;;;;;;;;5074789;28;20028;-41
2021/09/10 09:50:50;;;;;;;1.83;1.55;;;;;;;;;;5075034;28;20024;-41
2021/09/10 09:53:18;;;;;;;3.53;1.90;;;;;;;;;;5074752;28;20104;-42
2021/09/10 09:55:46;;;;;;;4.50;1.95;;;;;;;;;;5074954;28;20032;-41
2021/09/10 09:58:16;;;;;;;2.35;1.67;;;;;;;;;;5074918;28;20016;-40
2021/09/10 10:00:45;;;;;;;3.95;1.80;;;;;;;;;;5081933;28;20040;-42
2021/09/10 10:03:12;;;;;;;3.28;1.80;;;;;;;;;;5093356;28;20020;-41
2021/09/10 10:05:45;;;;;;;3.78;2.00;;;;;;;;;;5075740;28;20106;-40
2021/09/10 10:08:14;;;;;;;3.05;1.70;;;;;;;;;;5080686;28;20024;-45
2021/09/10 10:10:44;;;;;;;3.28;1.80;;;;;;;;;;5081770;28;20052;-42
2021/09/10 10:13:13;;;;;;;3.28;1.88;;;;;;;;;;5089333;28;20042;-41
2021/09/10 10:15:45;;;;;;;5.15;2.25;;;;;;;;;;5089992;28;20020;-45
2021/09/10 10:18:12;;;;;;;3.72;2.33;;;;;;;;;;5083803;28;20047;-41
2021/09/10 10:20:46;;;;;;;3.17;1.70;;;;;;;;;;5094364;28;20032;-43
2021/09/10 10:23:39;;;;;;;2.53;1.83;;;;;;;;;;5081292;28;20025;-41
2021/09/10 10:26:07;;;;;;;3.58;2.10;;;;;;;;;;5065692;28;20036;-41
2021/09/10 10:28:54;;;;;;;5.45;1.75;;;;;;;;;;5094359;28;20163;-40
2021/09/10 10:31:39;;;;;;;2.97;1.70;;;;;;;;;;5094318;28;20035;-39
2021/09/10 10:34:07;;;;;;;2.65;1.95;;;;;;;;;;5062640;28;20387;-40
2021/09/10 10:36:38;;;;;;;2.30;1.60;;;;;;;;;;5094260;28;20450;-40
2021/09/10 10:39:08;;;;;;;3.08;1.67;;;;;;;;;;5092881;28;20442;-42
2021/09/10 10:41:46;;;;;;;2.42;1.70;;;;;;;;;;5090808;28;20036;-41
2021/09/10 10:44:31;;;;;;;3.75;1.80;;;;;;;;;;5095345;28;20368;-42
2021/09/10 10:47:05;;;;;;;3.22;1.80;;;;;;;;;;5075159;28;20028;-41
2021/09/10 10:49:36;;;;;;;6.20;1.85;;;;;;;;;;5075523;28;20039;-43
2021/09/10 10:52:23;;;;;;;3.38;1.80;;;;;;;;;;5075424;28;20048;-41
2021/09/10 10:55:08;;;;;;;4.50;1.90;;;;;;;;;;5076456;28;20102;-40
2021/09/10 10:57:36;;;;;;;6.22;2.10;;;;;;;;;;5075390;28;20028;-40
2021/09/10 11:00:22;;;;;;;6.45;2.15;;;;;;;;;;5079759;28;20020;-40
2021/09/10 11:02:49;;;;;;;7.50;1.98;;;;;;;;;;5081090;28;20028;-40
2021/09/10 11:05:20;;;;;;;3.28;1.83;;;;;;;;;;5075823;28;20161;-41
2021/09/10 11:07:47;;;;;;;5.03;2.08;;;;;;;;;;5074784;28;20032;-40
2021/09/10 11:10:18;;;;;;;3.97;1.90;;;;;;;;;;5075637;28;20146;-41
2021/09/10 11:12:46;;;;;;;4.28;2.15;;;;;;;;;;5074774;28;20388;-42
2021/09/10 11:15:23;;;;;;;11.73;5.45;;;;;;;;;;5075573;28;20012;-38
2021/09/10 11:18:04;;;;;;;14.00;7.00;;;;;;;;;;5094012;28;20024;-38
2021/09/10 11:20:34;;;;;;;11.80;4.90;;;;;;;;;;5088753;28;20032;-38
2021/09/10 11:23:02;;;;;;;8.90;4.15;;;;;;;;;;5092956;28;20486;-48
2021/09/10 11:25:29;;;;;;;19.90;3.28;;;;;;;;;;5092977;28;20042;-50
2021/09/10 11:27:56;;;;;;;26.38;3.50;;;;;;;;;;5092854;28;20017;-40
2021/09/10 11:30:23;;;;;;;21.90;3.20;;;;;;;;;;5092763;28;20016;-43
2021/09/10 11:33:00;;;;;;;143.15;14.15;;;;;;;;;;5092953;28;20434;-40
2021/09/10 11:35:29;;;;;;;127.07;11.82;;;;;;;;;;5095480;28;20020;-41
2021/09/10 11:38:04;;;;;;;41.75;6.50;;;;;;;;;;5092828;28;20447;-41
2021/09/10 11:40:43;;;;;;;31.77;6.28;;;;;;;;;;5103705;28;20043;-43
2021/09/10 11:43:12;;;;;;;16.80;3.70;;;;;;;;;;5101972;28;20164;-41
2021/09/10 11:45:41;;;;;;;15.82;2.53;;;;;;;;;;5108279;28;20472;-41
2021/09/10 11:48:09;;;;;;;30.67;3.35;;;;;;;;;;5100488;28;20059;-41
2021/09/10 11:50:47;;;;;;;22.35;3.20;;;;;;;;;;5077640;28;20062;-37
2021/09/10 11:53:18;;;;;;;9.35;2.30;;;;;;;;;;5097783;28;20039;-36
2021/09/10 11:55:54;;;;;;;10.27;2.45;;;;;;;;;;5091327;28;20024;-42
2021/09/10 11:58:21;;;;;;;7.20;2.17;;;;;;;;;;5092116;28;20486;-41
2021/09/10 12:00:48;;;;;;;11.32;2.72;;;;;;;;;;5080082;28;20062;-39
2021/09/10 12:03:15;;;;;;;12.48;3.00;;;;;;;;;;5097384;28;20495;-40
2021/09/10 12:05:42;;;;;;;7.07;2.45;;;;;;;;;;5101800;28;20131;-38
2021/09/10 12:08:13;;;;;;;11.43;2.53;;;;;;;;;;5104204;28;20024;-42
2021/09/10 12:10:40;;;;;;;8.45;2.13;;;;;;;;;;5092327;28;20031;-44
2021/09/10 12:13:16;;;;;;;7.00;1.98;;;;;;;;;;5094276;28;20020;-41
2021/09/10 12:15:44;;;;;;;4.60;1.25;;;;;;;;;;5091070;28;20028;-44
2021/09/10 12:18:15;;;;;;;6.95;1.30;;;;;;;;;;5090421;28;20020;-39
2021/09/10 12:20:44;;;;;;;3.55;1.25;;;;;;;;;;5104350;28;20093;-45
2021/09/10 12:23:20;;;;;;;4.90;1.27;;;;;;;;;;5097006;28;20533;-50
2021/09/10 12:26:03;;;;;;;7.45;1.70;;;;;;;;;;5092577;28;20414;-53
2021/09/10 12:28:34;;;;;;;4.13;1.30;;;;;;;;;;5091118;28;20024;-52
2021/09/10 12:31:03;;;;;;;7.50;1.17;;;;;;;;;;5091819;28;20054;-49
2021/09/10 12:33:31;;;;;;;4.80;1.45;;;;;;;;;;5091945;28;20043;-51
2021/09/10 12:35:59;;;;;;;5.20;1.10;;;;;;;;;;5094077;28;20027;-54
2021/09/10 12:38:31;;;;;;;3.53;1.20;;;;;;;;;;5088891;28;20036;-63
2021/09/10 12:40:58;;;;;;;5.72;1.48;;;;;;;;;;5091311;28;20028;-57
2021/09/10 12:43:25;;;;;;;4.43;1.20;;;;;;;;;;5102951;28;20034;-50
2021/09/10 12:45:55;;;;;;;4.72;1.10;;;;;;;;;;5105104;28;20048;-48
2021/09/10 12:48:23;;;;;;;2.35;1.05;;;;;;;;;;5106767;28;20031;-48
2021/09/10 12:50:50;;;;;;;9.05;1.35;;;;;;;;;;5101114;28;20016;-48
2021/09/10 12:53:17;;;;;;;2.67;1.10;;;;;;;;;;5103978;28;20459;-45
2021/09/10 12:55:45;;;;;;;5.65;1.00;;;;;;;;;;5101104;28;20032;-47
2021/09/10 12:58:12;;;;;;;6.32;1.23;;;;;;;;;;5100056;28;20020;-44
2021/09/10 13:00:40;;;;;;;2.33;0.93;;;;;;;;;;5105158;28;20032;-45
2021/09/10 13:03:07;;;;;;;13.80;1.20;;;;;;;;;;5096939;28;20482;-46
2021/09/10 13:05:35;;;;;;;5.35;1.08;;;;;;;;;;5107209;28;20092;-45
2021/09/10 13:08:02;;;;;;;6.55;1.00;;;;;;;;;;5091047;28;20521;-46
2021/09/10 13:10:29;;;;;;;5.05;1.20;;;;;;;;;;5101301;28;20050;-46
2021/09/10 13:12:56;;;;;;;10.32;1.20;;;;;;;;;;5097874;28;20047;-46
2021/09/10 13:15:25;;;;;;;12.98;1.63;;;;;;;;;;5091089;28;20012;-43
2021/09/10 13:17:52;;;;;;;56.10;3.35;;;;;;;;;;5091058;28;20036;-44
2021/09/10 13:20:20;;;;;;;36.63;2.45;;;;;;;;;;5090911;28;20472;-44
2021/09/10 13:22:47;;;;;;;23.08;1.88;;;;;;;;;;5090267;28;20028;-42
2021/09/10 13:25:14;;;;;;;22.92;1.45;;;;;;;;;;5090574;28;20597;-42
2021/09/10 13:27:41;;;;;;;13.02;1.45;;;;;;;;;;5092460;28;20110;-40
2021/09/10 13:30:08;;;;;;;12.38;1.45;;;;;;;;;;5102648;28;20032;-39
2021/09/10 13:32:36;;;;;;;5.88;1.20;;;;;;;;;;5101763;28;20537;-39
2021/09/10 13:35:03;;;;;;;9.63;1.50;;;;;;;;;;5090729;28;20566;-41
2021/09/10 13:37:30;;;;;;;7.65;1.00;;;;;;;;;;5090662;28;20024;-40
2021/09/10 13:39:57;;;;;;;4.85;0.80;;;;;;;;;;5090932;28;20044;-40
2021/09/10 13:42:25;;;;;;;3.28;0.95;;;;;;;;;;5089992;28;20043;-43
2021/09/10 13:44:52;;;;;;;6.07;1.25;;;;;;;;;;5089888;28;20159;-43
2021/09/10 13:47:21;;;;;;;5.70;1.10;;;;;;;;;;5068224;28;20031;-44
2021/09/10 13:49:48;;;;;;;3.35;0.93;;;;;;;;;;5103949;28;20371;-45
2021/09/10 13:52:15;;;;;;;7.30;1.10;;;;;;;;;;5082852;28;20031;-42
2021/09/10 13:54:42;;;;;;;6.13;1.10;;;;;;;;;;5088814;28;20048;-42
2021/09/10 13:57:09;;;;;;;4.32;1.17;;;;;;;;;;5090615;28;20506;-42
2021/09/10 13:59:36;;;;;;;5.18;0.90;;;;;;;;;;5090379;28;20479;-42
2021/09/10 14:02:04;;;;;;;6.85;1.00;;;;;;;;;;5090398;28;20039;-40
2021/09/10 14:04:31;;;;;;;2.50;0.70;;;;;;;;;;5090838;28;20091;-44
2021/09/10 14:06:58;;;;;;;10.13;1.02;;;;;;;;;;5099390;28;20476;-42
2021/09/10 14:09:26;;;;;;;4.78;0.73;;;;;;;;;;5090659;28;20028;-48
2021/09/10 14:11:53;;;;;;;9.00;0.75;;;;;;;;;;5090555;28;20020;-43
2021/09/10 14:14:20;;;;;;;4.72;0.82;;;;;;;;;;5090733;28;20016;-47
2021/09/10 14:16:48;;;;;;;20.10;1.42;;;;;;;;;;5090982;28;20027;-40
2021/09/10 14:19:15;;;;;;;46.10;4.70;;;;;;;;;;5098121;28;20016;-39
2021/09/10 14:21:42;;;;;;;112.90;9.23;;;;;;;;;;5107659;28;20038;-39
2021/09/10 14:24:09;;;;;;;62.92;6.10;;;;;;;;;;5095955;28;20052;-41
2021/09/10 14:26:36;;;;;;;54.78;5.40;;;;;;;;;;5078883;28;20032;-41
2021/09/10 14:29:03;;;;;;;33.00;5.40;;;;;;;;;;5089134;28;20228;-43
2021/09/10 14:31:31;;;;;;;37.88;4.75;;;;;;;;;;5095253;28;20074;-39
2021/09/10 14:34:00;;;;;;;25.40;4.10;;;;;;;;;;5097700;28;20451;-41
2021/09/10 14:36:27;;;;;;;38.33;4.18;;;;;;;;;;5086527;28;20035;-39
2021/09/10 14:38:54;;;;;;;21.70;3.05;;;;;;;;;;5079142;28;20048;-43
2021/09/10 14:41:22;;;;;;;15.98;2.92;;;;;;;;;;5090544;28;20044;-38
2021/09/10 14:43:49;;;;;;;17.77;2.42;;;;;;;;;;5094655;28;20484;-39